TimeEST,TemperatureF,Dew PointF,Humidity,Sea Level PressureIn,VisibilityMPH,Wind Direction,Wind SpeedMPH,Gust SpeedMPH,PrecipitationIn,Events,Conditions,WindDirDegrees,DateUTC
12:22 AM,71.6,68.0,88,30.30,10.0,East,5.8,-,N/A,,Mostly Cloudy,80,2013-01-10 05:22:00
12:27 AM,71.6,68.0,88,30.30,10.0,East,4.6,-,N/A,,Mostly Cloudy,90,2013-01-10 05:27:00
12:53 AM,72.0,68.0,87,30.31,9.0,East,6.9,-,N/A,,Mostly Cloudy,80,2013-01-10 05:53:00
1:53 AM,72.0,68.0,87,30.30,10.0,East,5.8,-,N/A,,Mostly Cloudy,90,2013-01-10 06:53:00
2:53 AM,73.0,68.0,84,30.29,10.0,East,6.9,25.3,N/A,,Mostly Cloudy,90,2013-01-10 07:53:00
3:19 AM,71.6,66.2,83,30.28,10.0,East,5.8,-,N/A,,Partly Cloudy,90,2013-01-10 08:19:00
3:53 AM,72.0,66.9,84,30.28,10.0,Variable,5.8,-,N/A,,Partly Cloudy,0,2013-01-10 08:53:00
4:53 AM,71.6,66.2,83,30.27,10.0,Variable,5.8,-,N/A,,Scattered Clouds,0,2013-01-10 09:53:00
5:53 AM,71.1,66.9,87,30.28,10.0,Variable,3.5,-,N/A,,Partly Cloudy,0,2013-01-10 10:53:00
6:53 AM,70.0,66.9,90,30.29,10.0,East,4.6,-,N/A,,Mostly Cloudy,80,2013-01-10 11:53:00
7:21 AM,69.8,66.2,88,30.30,8.0,Variable,3.5,-,N/A,,Mostly Cloudy,0,2013-01-10 12:21:00
7:53 AM,70.0,66.9,90,30.30,8.0,Variable,3.5,-,N/A,,Scattered Clouds,0,2013-01-10 12:53:00
8:53 AM,72.0,66.9,84,30.31,10.0,East,4.6,-,N/A,,Scattered Clouds,90,2013-01-10 13:53:00
9:53 AM,73.4,66.2,78,30.30,10.0,ESE,8.1,-,N/A,,Scattered Clouds,110,2013-01-10 14:53:00
10:53 AM,78.1,63.0,60,30.27,10.0,ESE,15.0,21.9,N/A,,Partly Cloudy,110,2013-01-10 15:53:00
11:53 AM,80.1,60.1,50,30.24,10.0,East,12.7,20.7,N/A,,Clear,100,2013-01-10 16:53:00
12:53 PM,81.0,59.0,47,30.23,10.0,East,9.2,18.4,N/A,,Scattered Clouds,90,2013-01-10 17:53:00
1:53 PM,82.0,59.0,45,30.22,10.0,ESE,5.8,-,N/A,,Scattered Clouds,120,2013-01-10 18:53:00
2:53 PM,82.9,59.0,44,30.22,10.0,SE,5.8,-,N/A,,Scattered Clouds,140,2013-01-10 19:53:00
3:53 PM,82.9,60.1,46,30.23,10.0,ESE,4.6,-,N/A,,Scattered Clouds,120,2013-01-10 20:53:00
4:53 PM,82.9,61.0,47,30.23,10.0,East,6.9,-,N/A,,Partly Cloudy,100,2013-01-10 21:53:00
5:53 PM,80.1,61.0,52,30.23,10.0,Variable,4.6,-,N/A,,Scattered Clouds,0,2013-01-10 22:53:00
6:53 PM,79.0,61.0,54,30.24,10.0,East,5.8,-,N/A,,Scattered Clouds,90,2013-01-10 23:53:00
7:53 PM,77.0,62.1,60,30.25,10.0,ESE,6.9,-,N/A,,Mostly Cloudy,110,2013-01-11 00:53:00
8:53 PM,75.0,62.1,64,30.27,10.0,ESE,10.4,17.3,N/A,,Partly Cloudy,110,2013-01-11 01:53:00
9:53 PM,73.0,61.0,66,30.28,10.0,ESE,5.8,-,N/A,,Scattered Clouds,110,2013-01-11 02:53:00
10:53 PM,71.6,60.8,69,30.28,10.0,Variable,6.9,-,N/A,,Mostly Cloudy,0,2013-01-11 03:53:00
11:53 PM,71.1,62.1,73,30.28,10.0,Variable,4.6,-,N/A,,Mostly Cloudy,0,2013-01-11 04:53:00